sensor_id;sensor_type;location;lat;lon;timestamp;temperature;humidity
24814;DHT22;12904;50.088;11.414;2024-01-27T00:01:40;3.40;99.90
24814;DHT22;12904;50.088;11.414;2024-01-27T00:04:05;3.40;99.90
24814;DHT22;12904;50.088;11.414;2024-01-27T00:06:31;3.30;99.90
24814;DHT22;12904;50.088;11.414;2024-01-27T00:08:57;3.30;99.90
24814;DHT22;12904;50.088;11.414;2024-01-27T00:11:22;3.30;99.90
24814;DHT22;12904;50.088;11.414;2024-01-27T00:13:50;3.30;99.90
24814;DHT22;12904;50.088;11.414;2024-01-27T00:16:15;3.30;99.90
24814;DHT22;12904;50.088;11.414;2024-01-27T00:18:41;3.30;99.90
24814;DHT22;12904;50.088;11.414;2024-01-27T00:21:07;3.30;99.90
24814;DHT22;12904;50.088;11.414;2024-01-27T00:23:33;3.50;99.90
24814;DHT22;12904;50.088;11.414;2024-01-27T00:26:00;3.50;99.90
24814;DHT22;12904;50.088;11.414;2024-01-27T00:28:25;3.60;99.90
24814;DHT22;12904;50.088;11.414;2024-01-27T00:30:51;3.60;99.90
24814;DHT22;12904;50.088;11.414;2024-01-27T00:33:17;3.50;99.90
24814;DHT22;12904;50.088;11.414;2024-01-27T00:35:42;3.50;99.90
24814;DHT22;12904;50.088;11.414;2024-01-27T00:38:08;3.40;99.90
24814;DHT22;12904;50.088;11.414;2024-01-27T00:40:34;3.30;99.90
24814;DHT22;12904;50.088;11.414;2024-01-27T00:42:59;3.20;99.90
24814;DHT22;12904;50.088;11.414;2024-01-27T00:45:27;3.20;99.90
24814;DHT22;12904;50.088;11.414;2024-01-27T00:47:54;3.10;99.90
24814;DHT22;12904;50.088;11.414;2024-01-27T00:50:19;3.10;99.90
24814;DHT22;12904;50.088;11.414;2024-01-27T00:52:45;3.00;99.90
24814;DHT22;12904;50.088;11.414;2024-01-27T00:55:11;3.00;99.90
24814;DHT22;12904;50.088;11.414;2024-01-27T00:57:37;3.00;99.90
24814;DHT22;12904;50.088;11.414;2024-01-27T01:00:05;2.90;99.90
24814;DHT22;12904;50.088;11.414;2024-01-27T01:02:32;2.80;99.90
24814;DHT22;12904;50.088;11.414;2024-01-27T01:04:57;2.80;99.90
24814;DHT22;12904;50.088;11.414;2024-01-27T01:07:23;2.80;99.90
24814;DHT22;12904;50.088;11.414;2024-01-27T01:09:49;2.80;99.90
24814;DHT22;12904;50.088;11.414;2024-01-27T01:12:14;2.70;99.90
24814;DHT22;12904;50.088;11.414;2024-01-27T01:14:41;2.70;99.90
24814;DHT22;12904;50.088;11.414;2024-01-27T01:17:07;2.70;99.90
24814;DHT22;12904;50.088;11.414;2024-01-27T01:19:32;2.70;99.90
24814;DHT22;12904;50.088;11.414;2024-01-27T01:21:58;2.70;99.90
24814;DHT22;12904;50.088;11.414;2024-01-27T01:24:24;2.70;99.90
24814;DHT22;12904;50.088;11.414;2024-01-27T01:26:49;2.70;99.90
24814;DHT22;12904;50.088;11.414;2024-01-27T01:29:15;2.70;99.90
24814;DHT22;12904;50.088;11.414;2024-01-27T01:31:42;2.70;99.90
24814;DHT22;12904;50.088;11.414;2024-01-27T01:34:08;2.70;99.90
24814;DHT22;12904;50.088;11.414;2024-01-27T01:36:34;2.60;99.90
24814;DHT22;12904;50.088;11.414;2024-01-27T01:38:59;2.60;99.90
24814;DHT22;12904;50.088;11.414;2024-01-27T01:41:25;2.60;99.90
24814;DHT22;12904;50.088;11.414;2024-01-27T01:43:50;2.60;99.90
24814;DHT22;12904;50.088;11.414;2024-01-27T01:46:17;2.60;99.90
24814;DHT22;12904;50.088;11.414;2024-01-27T01:48:42;2.60;99.90
24814;DHT22;12904;50.088;11.414;2024-01-27T01:51:08;2.70;99.90
24814;DHT22;12904;50.088;11.414;2024-01-27T01:53:34;2.70;99.90
24814;DHT22;12904;50.088;11.414;2024-01-27T01:56:01;2.70;99.90
24814;DHT22;12904;50.088;11.414;2024-01-27T01:58:26;2.70;99.90
24814;DHT22;12904;50.088;11.414;2024-01-27T02:01:02;2.70;99.90
24814;DHT22;12904;50.088;11.414;2024-01-27T02:03:28;2.70;99.90
24814;DHT22;12904;50.088;11.414;2024-01-27T02:05:55;2.60;99.90
24814;DHT22;12904;50.088;11.414;2024-01-27T02:08:21;2.60;99.90
24814;DHT22;12904;50.088;11.414;2024-01-27T02:10:47;2.60;99.90
24814;DHT22;12904;50.088;11.414;2024-01-27T02:13:20;2.50;99.90
24814;DHT22;12904;50.088;11.414;2024-01-27T02:15:47;2.50;99.90
24814;DHT22;12904;50.088;11.414;2024-01-27T02:18:13;2.40;99.90
24814;DHT22;12904;50.088;11.414;2024-01-27T02:20:39;2.40;99.90
24814;DHT22;12904;50.088;11.414;2024-01-27T02:23:05;2.40;99.90
24814;DHT22;12904;50.088;11.414;2024-01-27T02:25:32;2.40;99.90
24814;DHT22;12904;50.088;11.414;2024-01-27T02:27:57;2.40;99.90
24814;DHT22;12904;50.088;11.414;2024-01-27T02:30:23;2.40;99.90
24814;DHT22;12904;50.088;11.414;2024-01-27T02:32:49;2.40;99.90
24814;DHT22;12904;50.088;11.414;2024-01-27T02:35:15;2.40;99.90
24814;DHT22;12904;50.088;11.414;2024-01-27T02:37:41;2.40;99.90
24814;DHT22;12904;50.088;11.414;2024-01-27T02:40:08;2.30;99.90
24814;DHT22;12904;50.088;11.414;2024-01-27T02:42:35;2.30;99.90
24814;DHT22;12904;50.088;11.414;2024-01-27T02:45:01;2.30;99.90
24814;DHT22;12904;50.088;11.414;2024-01-27T02:47:27;2.30;99.90
24814;DHT22;12904;50.088;11.414;2024-01-27T02:49:53;2.30;99.90
24814;DHT22;12904;50.088;11.414;2024-01-27T02:52:18;2.30;99.90
24814;DHT22;12904;50.088;11.414;2024-01-27T02:54:44;2.30;99.90
24814;DHT22;12904;50.088;11.414;2024-01-27T02:57:10;2.30;99.90
24814;DHT22;12904;50.088;11.414;2024-01-27T02:59:36;2.30;99.90
24814;DHT22;12904;50.088;11.414;2024-01-27T03:02:01;2.20;99.90
24814;DHT22;12904;50.088;11.414;2024-01-27T03:04:27;2.20;99.90
24814;DHT22;12904;50.088;11.414;2024-01-27T03:06:52;2.20;99.90
24814;DHT22;12904;50.088;11.414;2024-01-27T03:09:18;2.10;99.90
24814;DHT22;12904;50.088;11.414;2024-01-27T03:11:44;2.10;99.90
24814;DHT22;12904;50.088;11.414;2024-01-27T03:14:09;2.00;99.90
24814;DHT22;12904;50.088;11.414;2024-01-27T03:16:36;2.00;99.90
24814;DHT22;12904;50.088;11.414;2024-01-27T03:19:02;2.00;99.90
24814;DHT22;12904;50.088;11.414;2024-01-27T03:21:29;2.00;99.90
24814;DHT22;12904;50.088;11.414;2024-01-27T03:23:54;1.90;99.90
24814;DHT22;12904;50.088;11.414;2024-01-27T03:26:20;1.90;99.90
24814;DHT22;12904;50.088;11.414;2024-01-27T03:28:46;1.80;99.90
24814;DHT22;12904;50.088;11.414;2024-01-27T03:31:11;1.80;99.90
24814;DHT22;12904;50.088;11.414;2024-01-27T03:33:37;1.80;99.90
24814;DHT22;12904;50.088;11.414;2024-01-27T03:36:03;1.80;99.90
24814;DHT22;12904;50.088;11.414;2024-01-27T03:38:34;1.80;99.90
24814;DHT22;12904;50.088;11.414;2024-01-27T03:41:02;1.80;99.90
24814;DHT22;12904;50.088;11.414;2024-01-27T03:43:27;1.80;99.90
24814;DHT22;12904;50.088;11.414;2024-01-27T03:45:53;1.80;99.90
24814;DHT22;12904;50.088;11.414;2024-01-27T03:48:18;1.90;99.90
24814;DHT22;12904;50.088;11.414;2024-01-27T03:50:44;1.90;99.90
24814;DHT22;12904;50.088;11.414;2024-01-27T03:53:10;1.80;99.90
24814;DHT22;12904;50.088;11.414;2024-01-27T03:55:36;1.80;99.90
24814;DHT22;12904;50.088;11.414;2024-01-27T03:58:01;1.60;99.90
24814;DHT22;12904;50.088;11.414;2024-01-27T04:00:27;1.60;99.90
24814;DHT22;12904;50.088;11.414;2024-01-27T04:02:55;1.60;99.90
24814;DHT22;12904;50.088;11.414;2024-01-27T04:05:20;1.50;99.90
24814;DHT22;12904;50.088;11.414;2024-01-27T04:07:46;1.40;99.90
24814;DHT22;12904;50.088;11.414;2024-01-27T04:10:11;1.40;99.90
24814;DHT22;12904;50.088;11.414;2024-01-27T04:12:37;1.30;99.90
24814;DHT22;12904;50.088;11.414;2024-01-27T04:15:03;1.20;99.90
24814;DHT22;12904;50.088;11.414;2024-01-27T04:17:29;1.20;99.90
24814;DHT22;12904;50.088;11.414;2024-01-27T04:19:54;1.10;99.90
24814;DHT22;12904;50.088;11.414;2024-01-27T04:22:20;1.10;99.90
24814;DHT22;12904;50.088;11.414;2024-01-27T04:24:45;1.10;99.90
24814;DHT22;12904;50.088;11.414;2024-01-27T04:27:11;1.10;99.90
24814;DHT22;12904;50.088;11.414;2024-01-27T04:29:37;1.00;99.90
24814;DHT22;12904;50.088;11.414;2024-01-27T04:32:02;1.00;99.90
24814;DHT22;12904;50.088;11.414;2024-01-27T04:34:28;1.00;99.90
24814;DHT22;12904;50.088;11.414;2024-01-27T04:36:54;1.00;99.90
24814;DHT22;12904;50.088;11.414;2024-01-27T04:39:19;0.90;99.90
24814;DHT22;12904;50.088;11.414;2024-01-27T04:41:45;0.90;99.90
24814;DHT22;12904;50.088;11.414;2024-01-27T04:44:11;0.90;99.90
24814;DHT22;12904;50.088;11.414;2024-01-27T04:46:36;0.90;99.90
24814;DHT22;12904;50.088;11.414;2024-01-27T04:49:02;0.80;99.90
24814;DHT22;12904;50.088;11.414;2024-01-27T04:51:28;0.80;99.90
24814;DHT22;12904;50.088;11.414;2024-01-27T04:53:53;0.70;99.90
24814;DHT22;12904;50.088;11.414;2024-01-27T04:56:19;0.70;99.90
24814;DHT22;12904;50.088;11.414;2024-01-27T04:58:44;0.60;99.90
24814;DHT22;12904;50.088;11.414;2024-01-27T05:01:10;0.60;99.90
24814;DHT22;12904;50.088;11.414;2024-01-27T05:03:36;0.50;99.90
24814;DHT22;12904;50.088;11.414;2024-01-27T05:06:02;0.50;99.90
24814;DHT22;12904;50.088;11.414;2024-01-27T05:08:28;0.50;99.90
24814;DHT22;12904;50.088;11.414;2024-01-27T05:10:53;0.50;99.90
24814;DHT22;12904;50.088;11.414;2024-01-27T05:13:19;0.40;99.90
24814;DHT22;12904;50.088;11.414;2024-01-27T05:15:45;0.40;99.90
24814;DHT22;12904;50.088;11.414;2024-01-27T05:18:11;0.50;99.90
24814;DHT22;12904;50.088;11.414;2024-01-27T05:20:36;0.50;99.90
24814;DHT22;12904;50.088;11.414;2024-01-27T05:23:02;0.50;99.90
24814;DHT22;12904;50.088;11.414;2024-01-27T05:25:28;0.40;99.90
24814;DHT22;12904;50.088;11.414;2024-01-27T05:27:53;0.40;99.90
24814;DHT22;12904;50.088;11.414;2024-01-27T05:30:19;0.40;99.90
24814;DHT22;12904;50.088;11.414;2024-01-27T05:32:44;0.40;99.90
24814;DHT22;12904;50.088;11.414;2024-01-27T05:35:10;0.40;99.90
24814;DHT22;12904;50.088;11.414;2024-01-27T05:37:36;0.40;99.90
24814;DHT22;12904;50.088;11.414;2024-01-27T05:40:01;0.30;99.90
24814;DHT22;12904;50.088;11.414;2024-01-27T05:42:28;0.30;99.90
24814;DHT22;12904;50.088;11.414;2024-01-27T05:44:54;0.30;99.90
24814;DHT22;12904;50.088;11.414;2024-01-27T05:47:19;0.30;99.90
24814;DHT22;12904;50.088;11.414;2024-01-27T05:49:45;0.40;99.90
24814;DHT22;12904;50.088;11.414;2024-01-27T05:52:10;0.40;99.90
24814;DHT22;12904;50.088;11.414;2024-01-27T05:54:36;0.40;99.90
24814;DHT22;12904;50.088;11.414;2024-01-27T05:57:02;0.30;99.90
24814;DHT22;12904;50.088;11.414;2024-01-27T05:59:28;0.30;99.90
24814;DHT22;12904;50.088;11.414;2024-01-27T06:01:54;0.30;99.90
24814;DHT22;12904;50.088;11.414;2024-01-27T06:04:19;0.30;99.90
24814;DHT22;12904;50.088;11.414;2024-01-27T06:06:45;0.20;99.90
24814;DHT22;12904;50.088;11.414;2024-01-27T06:09:11;0.20;99.90
24814;DHT22;12904;50.088;11.414;2024-01-27T06:11:36;0.10;99.90
24814;DHT22;12904;50.088;11.414;2024-01-27T06:14:02;0.10;99.90
24814;DHT22;12904;50.088;11.414;2024-01-27T06:16:28;0.00;99.90
24814;DHT22;12904;50.088;11.414;2024-01-27T06:18:54;0.00;99.90
24814;DHT22;12904;50.088;11.414;2024-01-27T06:21:22;0.00;99.90
24814;DHT22;12904;50.088;11.414;2024-01-27T06:23:48;-0.10;99.90
24814;DHT22;12904;50.088;11.414;2024-01-27T06:26:14;-0.10;99.90
24814;DHT22;12904;50.088;11.414;2024-01-27T06:28:40;-0.10;99.90
24814;DHT22;12904;50.088;11.414;2024-01-27T06:31:06;-0.20;99.90
24814;DHT22;12904;50.088;11.414;2024-01-27T06:33:34;-0.20;99.90
24814;DHT22;12904;50.088;11.414;2024-01-27T06:36:00;-0.20;99.90
24814;DHT22;12904;50.088;11.414;2024-01-27T06:38:28;-0.20;99.90
24814;DHT22;12904;50.088;11.414;2024-01-27T06:40:54;-0.20;99.90
24814;DHT22;12904;50.088;11.414;2024-01-27T06:43:20;-0.30;99.90
24814;DHT22;12904;50.088;11.414;2024-01-27T06:45:45;-0.30;99.90
24814;DHT22;12904;50.088;11.414;2024-01-27T06:48:11;-0.20;99.90
24814;DHT22;12904;50.088;11.414;2024-01-27T06:50:36;-0.20;99.90
24814;DHT22;12904;50.088;11.414;2024-01-27T06:53:02;-0.20;99.90
24814;DHT22;12904;50.088;11.414;2024-01-27T06:55:28;-0.20;99.90
24814;DHT22;12904;50.088;11.414;2024-01-27T06:57:54;-0.20;99.90
24814;DHT22;12904;50.088;11.414;2024-01-27T07:00:20;-0.20;99.90
24814;DHT22;12904;50.088;11.414;2024-01-27T07:02:45;-0.10;99.90
24814;DHT22;12904;50.088;11.414;2024-01-27T07:05:11;-0.10;99.90
24814;DHT22;12904;50.088;11.414;2024-01-27T07:07:40;-0.10;99.90
24814;DHT22;12904;50.088;11.414;2024-01-27T07:10:06;-0.10;99.90
24814;DHT22;12904;50.088;11.414;2024-01-27T07:12:33;-0.10;99.90
24814;DHT22;12904;50.088;11.414;2024-01-27T07:14:59;0.00;99.90
24814;DHT22;12904;50.088;11.414;2024-01-27T07:17:29;0.00;99.90
24814;DHT22;12904;50.088;11.414;2024-01-27T07:19:54;0.00;99.90
24814;DHT22;12904;50.088;11.414;2024-01-27T07:22:20;0.00;99.90
24814;DHT22;12904;50.088;11.414;2024-01-27T07:24:46;0.00;99.90
24814;DHT22;12904;50.088;11.414;2024-01-27T07:27:12;-0.10;99.90
24814;DHT22;12904;50.088;11.414;2024-01-27T07:29:39;-0.20;99.90
24814;DHT22;12904;50.088;11.414;2024-01-27T07:32:05;-0.30;99.90
24814;DHT22;12904;50.088;11.414;2024-01-27T07:34:33;-0.40;99.90
24814;DHT22;12904;50.088;11.414;2024-01-27T07:36:58;-0.40;99.90
24814;DHT22;12904;50.088;11.414;2024-01-27T07:39:24;-0.40;99.90
24814;DHT22;12904;50.088;11.414;2024-01-27T07:41:50;-0.50;99.90
24814;DHT22;12904;50.088;11.414;2024-01-27T07:44:18;-0.50;99.90
24814;DHT22;12904;50.088;11.414;2024-01-27T07:46:43;-0.40;99.90
24814;DHT22;12904;50.088;11.414;2024-01-27T07:49:09;-0.40;99.90
24814;DHT22;12904;50.088;11.414;2024-01-27T07:51:38;-0.30;99.90
24814;DHT22;12904;50.088;11.414;2024-01-27T07:54:03;-0.30;99.90
24814;DHT22;12904;50.088;11.414;2024-01-27T07:56:29;-0.30;99.90
24814;DHT22;12904;50.088;11.414;2024-01-27T07:58:55;-0.20;99.90
24814;DHT22;12904;50.088;11.414;2024-01-27T08:01:20;-0.10;99.90
24814;DHT22;12904;50.088;11.414;2024-01-27T08:03:46;-0.10;99.90
24814;DHT22;12904;50.088;11.414;2024-01-27T08:06:19;0.00;99.90
24814;DHT22;12904;50.088;11.414;2024-01-27T08:08:46;0.00;99.90
24814;DHT22;12904;50.088;11.414;2024-01-27T08:11:12;0.10;99.90
24814;DHT22;12904;50.088;11.414;2024-01-27T08:13:38;0.10;99.90
24814;DHT22;12904;50.088;11.414;2024-01-27T08:16:04;0.10;99.90
24814;DHT22;12904;50.088;11.414;2024-01-27T08:18:31;0.20;99.90
24814;DHT22;12904;50.088;11.414;2024-01-27T08:20:56;0.20;99.90
24814;DHT22;12904;50.088;11.414;2024-01-27T08:23:22;0.30;99.90
24814;DHT22;12904;50.088;11.414;2024-01-27T08:25:48;0.40;99.90
24814;DHT22;12904;50.088;11.414;2024-01-27T08:28:18;0.40;99.90
24814;DHT22;12904;50.088;11.414;2024-01-27T08:30:44;0.50;99.90
24814;DHT22;12904;50.088;11.414;2024-01-27T08:33:09;0.60;99.90
24814;DHT22;12904;50.088;11.414;2024-01-27T08:35:35;0.60;99.90
24814;DHT22;12904;50.088;11.414;2024-01-27T08:38:01;0.70;99.90
24814;DHT22;12904;50.088;11.414;2024-01-27T08:40:29;0.80;99.90
24814;DHT22;12904;50.088;11.414;2024-01-27T08:42:54;0.90;99.90
24814;DHT22;12904;50.088;11.414;2024-01-27T08:45:20;1.00;99.90
24814;DHT22;12904;50.088;11.414;2024-01-27T08:47:46;1.10;99.90
24814;DHT22;12904;50.088;11.414;2024-01-27T08:50:11;1.20;99.90
24814;DHT22;12904;50.088;11.414;2024-01-27T08:52:37;1.30;99.90
24814;DHT22;12904;50.088;11.414;2024-01-27T08:55:03;1.40;99.90
24814;DHT22;12904;50.088;11.414;2024-01-27T08:57:28;1.50;99.90
24814;DHT22;12904;50.088;11.414;2024-01-27T08:59:54;1.60;99.90
24814;DHT22;12904;50.088;11.414;2024-01-27T09:02:19;1.70;99.90
24814;DHT22;12904;50.088;11.414;2024-01-27T09:04:45;1.80;99.90
24814;DHT22;12904;50.088;11.414;2024-01-27T09:07:11;1.90;99.90
24814;DHT22;12904;50.088;11.414;2024-01-27T09:09:37;2.00;99.90
24814;DHT22;12904;50.088;11.414;2024-01-27T09:12:06;2.10;99.90
24814;DHT22;12904;50.088;11.414;2024-01-27T09:14:32;2.20;99.90
24814;DHT22;12904;50.088;11.414;2024-01-27T09:17:00;2.30;99.90
24814;DHT22;12904;50.088;11.414;2024-01-27T09:19:26;2.40;99.90
24814;DHT22;12904;50.088;11.414;2024-01-27T09:21:51;2.40;99.90
24814;DHT22;12904;50.088;11.414;2024-01-27T09:24:17;2.60;99.90
24814;DHT22;12904;50.088;11.414;2024-01-27T09:26:42;3.00;99.90
24814;DHT22;12904;50.088;11.414;2024-01-27T09:29:08;3.90;99.90
24814;DHT22;12904;50.088;11.414;2024-01-27T09:31:34;5.10;99.90
24814;DHT22;12904;50.088;11.414;2024-01-27T09:34:00;6.50;99.90
24814;DHT22;12904;50.088;11.414;2024-01-27T09:36:28;7.60;99.90
24814;DHT22;12904;50.088;11.414;2024-01-27T09:38:53;8.50;99.90
24814;DHT22;12904;50.088;11.414;2024-01-27T09:41:20;9.20;99.90
24814;DHT22;12904;50.088;11.414;2024-01-27T09:43:46;9.90;99.90
24814;DHT22;12904;50.088;11.414;2024-01-27T09:46:14;10.50;99.90
24814;DHT22;12904;50.088;11.414;2024-01-27T09:48:40;11.00;99.90
24814;DHT22;12904;50.088;11.414;2024-01-27T09:51:08;11.70;99.90
24814;DHT22;12904;50.088;11.414;2024-01-27T09:53:34;12.00;95.70
24814;DHT22;12904;50.088;11.414;2024-01-27T09:56:01;12.10;93.10
24814;DHT22;12904;50.088;11.414;2024-01-27T09:58:28;12.00;94.10
24814;DHT22;12904;50.088;11.414;2024-01-27T10:00:56;12.20;92.70
24814;DHT22;12904;50.088;11.414;2024-01-27T10:03:27;11.90;89.60
24814;DHT22;12904;50.088;11.414;2024-01-27T10:05:55;11.20;91.80
24814;DHT22;12904;50.088;11.414;2024-01-27T10:08:24;10.70;93.20
24814;DHT22;12904;50.088;11.414;2024-01-27T10:10:54;10.40;95.60
24814;DHT22;12904;50.088;11.414;2024-01-27T10:13:20;9.40;95.60
24814;DHT22;12904;50.088;11.414;2024-01-27T10:16:09;8.40;99.90
24814;DHT22;12904;50.088;11.414;2024-01-27T10:18:37;7.70;99.90
24814;DHT22;12904;50.088;11.414;2024-01-27T10:21:13;7.40;99.90
24814;DHT22;12904;50.088;11.414;2024-01-27T10:23:39;7.20;99.90
24814;DHT22;12904;50.088;11.414;2024-01-27T10:26:08;7.00;99.90
24814;DHT22;12904;50.088;11.414;2024-01-27T10:28:33;6.90;99.90
24814;DHT22;12904;50.088;11.414;2024-01-27T10:31:12;7.10;99.90
24814;DHT22;12904;50.088;11.414;2024-01-27T10:33:38;7.20;99.90
24814;DHT22;12904;50.088;11.414;2024-01-27T10:36:04;7.40;99.90
24814;DHT22;12904;50.088;11.414;2024-01-27T10:38:37;7.30;99.90
24814;DHT22;12904;50.088;11.414;2024-01-27T10:41:07;7.30;99.90
24814;DHT22;12904;50.088;11.414;2024-01-27T10:43:35;7.60;99.90
24814;DHT22;12904;50.088;11.414;2024-01-27T10:46:06;7.50;99.90
24814;DHT22;12904;50.088;11.414;2024-01-27T10:48:34;7.60;99.90
24814;DHT22;12904;50.088;11.414;2024-01-27T10:51:05;7.50;99.90
24814;DHT22;12904;50.088;11.414;2024-01-27T10:53:33;7.50;99.90
24814;DHT22;12904;50.088;11.414;2024-01-27T10:56:03;7.60;99.90
24814;DHT22;12904;50.088;11.414;2024-01-27T10:58:33;7.60;99.90
24814;DHT22;12904;50.088;11.414;2024-01-27T11:01:10;7.60;99.90
24814;DHT22;12904;50.088;11.414;2024-01-27T11:03:38;7.60;99.90
24814;DHT22;12904;50.088;11.414;2024-01-27T11:06:06;7.80;99.90
24814;DHT22;12904;50.088;11.414;2024-01-27T11:08:33;7.90;99.90
24814;DHT22;12904;50.088;11.414;2024-01-27T11:11:01;8.10;99.90
24814;DHT22;12904;50.088;11.414;2024-01-27T11:13:29;8.20;99.90
24814;DHT22;12904;50.088;11.414;2024-01-27T11:15:56;8.30;99.90
24814;DHT22;12904;50.088;11.414;2024-01-27T11:18:21;8.30;99.90
24814;DHT22;12904;50.088;11.414;2024-01-27T11:20:47;8.30;99.90
24814;DHT22;12904;50.088;11.414;2024-01-27T11:23:13;8.20;99.90
24814;DHT22;12904;50.088;11.414;2024-01-27T11:25:42;8.10;99.90
24814;DHT22;12904;50.088;11.414;2024-01-27T11:28:15;8.00;99.90
24814;DHT22;12904;50.088;11.414;2024-01-27T11:30:46;8.00;99.90
24814;DHT22;12904;50.088;11.414;2024-01-27T11:33:12;7.90;99.90
24814;DHT22;12904;50.088;11.414;2024-01-27T11:35:38;8.00;99.90
24814;DHT22;12904;50.088;11.414;2024-01-27T11:38:04;8.00;99.90
24814;DHT22;12904;50.088;11.414;2024-01-27T11:40:29;8.10;99.90
24814;DHT22;12904;50.088;11.414;2024-01-27T11:43:00;8.10;99.90
24814;DHT22;12904;50.088;11.414;2024-01-27T11:45:26;8.00;99.90
24814;DHT22;12904;50.088;11.414;2024-01-27T11:47:55;7.90;99.90
24814;DHT22;12904;50.088;11.414;2024-01-27T11:50:22;7.70;99.90
24814;DHT22;12904;50.088;11.414;2024-01-27T11:52:48;7.60;99.90
24814;DHT22;12904;50.088;11.414;2024-01-27T11:55:14;7.50;99.90
24814;DHT22;12904;50.088;11.414;2024-01-27T11:57:41;7.50;99.90
24814;DHT22;12904;50.088;11.414;2024-01-27T12:00:07;7.50;99.90
24814;DHT22;12904;50.088;11.414;2024-01-27T12:02:35;7.40;99.90
24814;DHT22;12904;50.088;11.414;2024-01-27T12:05:01;7.50;99.90
24814;DHT22;12904;50.088;11.414;2024-01-27T12:07:27;7.60;99.90
24814;DHT22;12904;50.088;11.414;2024-01-27T12:09:53;7.80;99.90
24814;DHT22;12904;50.088;11.414;2024-01-27T12:12:20;7.90;99.90
24814;DHT22;12904;50.088;11.414;2024-01-27T12:14:50;8.00;99.90
24814;DHT22;12904;50.088;11.414;2024-01-27T12:17:17;8.10;99.90
24814;DHT22;12904;50.088;11.414;2024-01-27T12:19:51;8.30;99.90
24814;DHT22;12904;50.088;11.414;2024-01-27T12:22:27;8.70;99.90
24814;DHT22;12904;50.088;11.414;2024-01-27T12:25:08;9.00;99.90
24814;DHT22;12904;50.088;11.414;2024-01-27T12:27:35;9.20;99.90
24814;DHT22;12904;50.088;11.414;2024-01-27T12:30:01;9.00;99.90
24814;DHT22;12904;50.088;11.414;2024-01-27T12:32:27;8.80;99.90
24814;DHT22;12904;50.088;11.414;2024-01-27T12:34:53;8.50;99.90
24814;DHT22;12904;50.088;11.414;2024-01-27T12:37:21;8.10;99.90
24814;DHT22;12904;50.088;11.414;2024-01-27T12:39:47;8.00;99.90
24814;DHT22;12904;50.088;11.414;2024-01-27T12:42:16;7.70;99.90
24814;DHT22;12904;50.088;11.414;2024-01-27T12:44:42;7.60;99.90
24814;DHT22;12904;50.088;11.414;2024-01-27T12:47:09;7.60;99.90
24814;DHT22;12904;50.088;11.414;2024-01-27T12:49:35;7.50;99.90
24814;DHT22;12904;50.088;11.414;2024-01-27T12:52:01;7.60;99.90
24814;DHT22;12904;50.088;11.414;2024-01-27T12:54:27;7.80;99.90
24814;DHT22;12904;50.088;11.414;2024-01-27T12:56:53;7.90;99.90
24814;DHT22;12904;50.088;11.414;2024-01-27T12:59:18;7.90;99.90
24814;DHT22;12904;50.088;11.414;2024-01-27T13:01:44;7.90;99.90
24814;DHT22;12904;50.088;11.414;2024-01-27T13:04:10;8.00;99.90
24814;DHT22;12904;50.088;11.414;2024-01-27T13:06:35;8.10;99.90
24814;DHT22;12904;50.088;11.414;2024-01-27T13:09:02;8.30;99.90
24814;DHT22;12904;50.088;11.414;2024-01-27T13:11:28;8.20;99.90
24814;DHT22;12904;50.088;11.414;2024-01-27T13:13:54;8.10;99.90
24814;DHT22;12904;50.088;11.414;2024-01-27T13:16:19;8.20;99.90
24814;DHT22;12904;50.088;11.414;2024-01-27T13:18:45;8.20;99.90
24814;DHT22;12904;50.088;11.414;2024-01-27T13:21:11;8.20;99.90
24814;DHT22;12904;50.088;11.414;2024-01-27T13:23:37;8.30;99.90
24814;DHT22;12904;50.088;11.414;2024-01-27T13:26:03;8.20;99.90
24814;DHT22;12904;50.088;11.414;2024-01-27T13:28:29;8.30;99.90
24814;DHT22;12904;50.088;11.414;2024-01-27T13:30:55;8.30;99.90
24814;DHT22;12904;50.088;11.414;2024-01-27T13:33:21;8.30;99.90
24814;DHT22;12904;50.088;11.414;2024-01-27T13:35:46;8.40;99.90
24814;DHT22;12904;50.088;11.414;2024-01-27T13:38:15;8.50;99.90
24814;DHT22;12904;50.088;11.414;2024-01-27T13:40:44;8.50;99.90
24814;DHT22;12904;50.088;11.414;2024-01-27T13:43:10;8.60;99.90
24814;DHT22;12904;50.088;11.414;2024-01-27T13:45:35;8.60;99.90
24814;DHT22;12904;50.088;11.414;2024-01-27T13:48:01;8.50;99.90
24814;DHT22;12904;50.088;11.414;2024-01-27T13:50:27;8.50;99.90
24814;DHT22;12904;50.088;11.414;2024-01-27T13:52:56;8.60;99.90
24814;DHT22;12904;50.088;11.414;2024-01-27T13:55:21;8.50;99.90
24814;DHT22;12904;50.088;11.414;2024-01-27T13:57:48;8.50;99.90
24814;DHT22;12904;50.088;11.414;2024-01-27T14:00:14;8.60;99.90
24814;DHT22;12904;50.088;11.414;2024-01-27T14:02:41;8.60;99.90
24814;DHT22;12904;50.088;11.414;2024-01-27T14:05:07;8.60;99.90
24814;DHT22;12904;50.088;11.414;2024-01-27T14:07:33;8.60;99.90
24814;DHT22;12904;50.088;11.414;2024-01-27T14:09:59;8.60;99.90
24814;DHT22;12904;50.088;11.414;2024-01-27T14:12:26;8.70;99.90
24814;DHT22;12904;50.088;11.414;2024-01-27T14:14:52;8.70;99.90
24814;DHT22;12904;50.088;11.414;2024-01-27T14:17:18;8.70;99.90
24814;DHT22;12904;50.088;11.414;2024-01-27T14:19:46;8.80;99.90
24814;DHT22;12904;50.088;11.414;2024-01-27T14:22:12;8.80;99.90
24814;DHT22;12904;50.088;11.414;2024-01-27T14:24:38;8.80;99.90
24814;DHT22;12904;50.088;11.414;2024-01-27T14:27:07;8.80;99.90
24814;DHT22;12904;50.088;11.414;2024-01-27T14:29:33;8.80;99.90
24814;DHT22;12904;50.088;11.414;2024-01-27T14:32:00;8.70;99.90
24814;DHT22;12904;50.088;11.414;2024-01-27T14:34:26;8.70;99.90
24814;DHT22;12904;50.088;11.414;2024-01-27T14:36:52;8.60;99.90
24814;DHT22;12904;50.088;11.414;2024-01-27T14:39:18;8.70;99.90
24814;DHT22;12904;50.088;11.414;2024-01-27T14:41:43;8.70;99.90
24814;DHT22;12904;50.088;11.414;2024-01-27T14:44:09;8.70;99.90
24814;DHT22;12904;50.088;11.414;2024-01-27T14:46:37;8.70;99.90
24814;DHT22;12904;50.088;11.414;2024-01-27T14:49:07;8.70;99.90
24814;DHT22;12904;50.088;11.414;2024-01-27T14:51:36;8.70;99.90
24814;DHT22;12904;50.088;11.414;2024-01-27T14:54:02;8.60;99.90
24814;DHT22;12904;50.088;11.414;2024-01-27T14:56:31;8.40;99.90
24814;DHT22;12904;50.088;11.414;2024-01-27T14:58:58;8.30;99.90
24814;DHT22;12904;50.088;11.414;2024-01-27T15:01:24;8.20;99.90
24814;DHT22;12904;50.088;11.414;2024-01-27T15:03:50;8.10;99.90
24814;DHT22;12904;50.088;11.414;2024-01-27T15:06:16;7.90;99.90
24814;DHT22;12904;50.088;11.414;2024-01-27T15:08:41;7.80;99.90
24814;DHT22;12904;50.088;11.414;2024-01-27T15:11:09;7.80;99.90
24814;DHT22;12904;50.088;11.414;2024-01-27T15:13:35;7.80;99.90
24814;DHT22;12904;50.088;11.414;2024-01-27T15:16:01;7.70;99.90
24814;DHT22;12904;50.088;11.414;2024-01-27T15:18:26;7.60;99.90
24814;DHT22;12904;50.088;11.414;2024-01-27T15:20:52;7.60;99.90
24814;DHT22;12904;50.088;11.414;2024-01-27T15:23:17;7.50;99.90
24814;DHT22;12904;50.088;11.414;2024-01-27T15:25:44;7.40;99.90